Terminal Aerodrome Forecast
Issued by NWS

Home | Current Version | Previous Version | Text Only | Print | Product List | Glossary On
Versions: 1 2 3 4 5 6 7 8 9 10 11 12 13 14 15 16 17 18 19 20 21 22 23
000
FTUS41 KBTV 301700
TAFMPV
TAF
KMPV 301733Z 3018/3118 18004KT P6SM BKN040 OVC060
     FM310500 00000KT 2SM BR SCT002 BKN080
     FM311200 VRB02KT 4SM BR VCSH BKN045 OVC060
     FM311400 19007KT P6SM VCSH BKN035 OVC050=

USA.gov is the U.S. government's official web portal to all federal, state and local government web resources and services.